sensor_id;sensor_type;location;lat;lon;timestamp;pressure;altitude;pressure_sealevel;temperature;humidity
76815;BME280;65768;49.906;19.384;2023-07-16T00:00:10;97982.46;;;23.54;56.44
76815;BME280;65768;49.906;19.384;2023-07-16T00:03:18;97981.38;;;23.55;56.34
76815;BME280;65768;49.906;19.384;2023-07-16T00:05:50;97981.35;;;23.62;55.94
76815;BME280;65768;49.906;19.384;2023-07-16T00:08:18;97978.91;;;23.77;55.30
76815;BME280;65768;49.906;19.384;2023-07-16T00:10:47;97980.60;;;23.88;55.50
76815;BME280;65768;49.906;19.384;2023-07-16T00:13:15;97977.31;;;23.86;55.05
76815;BME280;65768;49.906;19.384;2023-07-16T00:15:43;97977.58;;;23.88;54.68
76815;BME280;65768;49.906;19.384;2023-07-16T00:18:11;97975.35;;;23.86;54.75
76815;BME280;65768;49.906;19.384;2023-07-16T00:20:39;97977.61;;;23.75;55.81
76815;BME280;65768;49.906;19.384;2023-07-16T00:23:07;97966.17;;;23.59;56.61
76815;BME280;65768;49.906;19.384;2023-07-16T00:25:35;97966.27;;;23.42;57.43
76815;BME280;65768;49.906;19.384;2023-07-16T00:28:03;97963.27;;;23.35;57.06
76815;BME280;65768;49.906;19.384;2023-07-16T00:30:32;97962.52;;;23.29;57.05
76815;BME280;65768;49.906;19.384;2023-07-16T00:33:00;97959.67;;;23.26;57.28
76815;BME280;65768;49.906;19.384;2023-07-16T00:35:28;97957.50;;;23.27;57.79
76815;BME280;65768;49.906;19.384;2023-07-16T00:37:56;97950.91;;;23.24;57.59
76815;BME280;65768;49.906;19.384;2023-07-16T00:40:24;97955.86;;;23.34;56.57
76815;BME280;65768;49.906;19.384;2023-07-16T00:42:52;97959.44;;;23.33;56.68
76815;BME280;65768;49.906;19.384;2023-07-16T00:45:20;97960.05;;;23.35;56.51
76815;BME280;65768;49.906;19.384;2023-07-16T00:47:48;97959.54;;;23.25;57.39
76815;BME280;65768;49.906;19.384;2023-07-16T00:50:16;97961.86;;;23.02;58.49
76815;BME280;65768;49.906;19.384;2023-07-16T00:52:44;97953.72;;;22.87;58.74
76815;BME280;65768;49.906;19.384;2023-07-16T00:55:13;97950.73;;;22.80;59.15
76815;BME280;65768;49.906;19.384;2023-07-16T00:57:41;97953.46;;;22.73;59.15
76815;BME280;65768;49.906;19.384;2023-07-16T01:00:10;97951.86;;;22.62;59.45
76815;BME280;65768;49.906;19.384;2023-07-16T01:02:39;97949.16;;;22.63;59.37
76815;BME280;65768;49.906;19.384;2023-07-16T01:05:09;97946.55;;;22.69;59.05
76815;BME280;65768;49.906;19.384;2023-07-16T01:07:38;97945.39;;;22.80;58.59
76815;BME280;65768;49.906;19.384;2023-07-16T01:10:11;97944.95;;;22.92;58.01
76815;BME280;65768;49.906;19.384;2023-07-16T01:12:39;97944.23;;;23.03;57.47
76815;BME280;65768;49.906;19.384;2023-07-16T01:15:08;97946.75;;;22.99;58.32
76815;BME280;65768;49.906;19.384;2023-07-16T01:17:36;97944.02;;;22.86;59.36
76815;BME280;65768;49.906;19.384;2023-07-16T01:20:05;97942.75;;;22.70;59.83
76815;BME280;65768;49.906;19.384;2023-07-16T01:31:28;97924.52;;;22.62;60.75
76815;BME280;65768;49.906;19.384;2023-07-16T01:33:57;97927.55;;;22.62;60.73
76815;BME280;65768;49.906;19.384;2023-07-16T01:36:26;97918.23;;;22.63;60.60
76815;BME280;65768;49.906;19.384;2023-07-16T01:38:56;97922.40;;;22.68;60.04
76815;BME280;65768;49.906;19.384;2023-07-16T01:41:24;97921.71;;;22.68;60.11
76815;BME280;65768;49.906;19.384;2023-07-16T01:43:53;97919.61;;;22.64;59.82
76815;BME280;65768;49.906;19.384;2023-07-16T01:46:21;97920.61;;;22.42;61.20
76815;BME280;65768;49.906;19.384;2023-07-16T01:48:49;97921.30;;;22.21;62.08
76815;BME280;65768;49.906;19.384;2023-07-16T01:51:17;97919.05;;;22.09;62.60
76815;BME280;65768;49.906;19.384;2023-07-16T01:53:46;97918.02;;;21.98;62.60
76815;BME280;65768;49.906;19.384;2023-07-16T01:56:14;97919.98;;;21.81;64.56
76815;BME280;65768;49.906;19.384;2023-07-16T01:58:43;97924.09;;;21.62;65.17
76815;BME280;65768;49.906;19.384;2023-07-16T02:01:11;97925.77;;;21.46;66.60
76815;BME280;65768;49.906;19.384;2023-07-16T02:03:39;97929.33;;;21.38;66.63
76815;BME280;65768;49.906;19.384;2023-07-16T02:06:07;97926.96;;;21.35;66.82
76815;BME280;65768;49.906;19.384;2023-07-16T02:08:35;97921.27;;;21.28;66.94
76815;BME280;65768;49.906;19.384;2023-07-16T02:11:03;97921.80;;;21.20;66.97
76815;BME280;65768;49.906;19.384;2023-07-16T02:13:31;97918.02;;;21.18;67.20
76815;BME280;65768;49.906;19.384;2023-07-16T02:15:59;97915.92;;;21.17;67.49
76815;BME280;65768;49.906;19.384;2023-07-16T02:18:27;97919.40;;;21.07;67.57
76815;BME280;65768;49.906;19.384;2023-07-16T02:20:56;97918.64;;;21.08;67.15
76815;BME280;65768;49.906;19.384;2023-07-16T02:23:24;97920.84;;;21.11;67.71
76815;BME280;65768;49.906;19.384;2023-07-16T02:25:52;97925.59;;;21.04;67.98
76815;BME280;65768;49.906;19.384;2023-07-16T02:28:20;97922.09;;;21.02;69.28
76815;BME280;65768;49.906;19.384;2023-07-16T02:30:49;97926.08;;;21.04;69.34
76815;BME280;65768;49.906;19.384;2023-07-16T02:33:18;97919.48;;;21.01;69.56
76815;BME280;65768;49.906;19.384;2023-07-16T02:35:47;97916.80;;;21.02;70.46
76815;BME280;65768;49.906;19.384;2023-07-16T02:38:22;97915.19;;;21.06;70.82
76815;BME280;65768;49.906;19.384;2023-07-16T02:40:50;97917.45;;;21.19;70.61
76815;BME280;65768;49.906;19.384;2023-07-16T02:43:18;97912.40;;;21.28;69.91
76815;BME280;65768;49.906;19.384;2023-07-16T02:45:46;97910.63;;;21.24;70.55
76815;BME280;65768;49.906;19.384;2023-07-16T02:48:14;97914.15;;;21.28;70.45
76815;BME280;65768;49.906;19.384;2023-07-16T02:50:43;97915.60;;;21.20;69.97
76815;BME280;65768;49.906;19.384;2023-07-16T02:53:11;97914.85;;;20.95;70.14
76815;BME280;65768;49.906;19.384;2023-07-16T02:55:39;97920.91;;;20.94;70.61
76815;BME280;65768;49.906;19.384;2023-07-16T02:58:07;97920.16;;;20.79;70.22
76815;BME280;65768;49.906;19.384;2023-07-16T03:00:35;97924.47;;;20.62;70.67
76815;BME280;65768;49.906;19.384;2023-07-16T03:03:03;97927.67;;;20.58;71.19
76815;BME280;65768;49.906;19.384;2023-07-16T03:05:31;97927.06;;;20.55;71.99
76815;BME280;65768;49.906;19.384;2023-07-16T03:07:59;97930.69;;;20.54;71.43
76815;BME280;65768;49.906;19.384;2023-07-16T03:10:28;97925.33;;;20.55;71.38
76815;BME280;65768;49.906;19.384;2023-07-16T03:12:56;97927.13;;;20.63;71.71
76815;BME280;65768;49.906;19.384;2023-07-16T03:15:24;97929.86;;;20.69;71.73
76815;BME280;65768;49.906;19.384;2023-07-16T03:17:52;97931.80;;;20.69;71.05
76815;BME280;65768;49.906;19.384;2023-07-16T03:20:20;97924.64;;;20.63;71.29
76815;BME280;65768;49.906;19.384;2023-07-16T03:22:48;97926.02;;;20.63;71.09
76815;BME280;65768;49.906;19.384;2023-07-16T03:25:17;97927.61;;;20.64;71.14
76815;BME280;65768;49.906;19.384;2023-07-16T03:27:45;97926.48;;;20.61;70.83
76815;BME280;65768;49.906;19.384;2023-07-16T03:30:13;97930.75;;;20.69;71.00
76815;BME280;65768;49.906;19.384;2023-07-16T03:32:41;97926.53;;;20.76;70.91
76815;BME280;65768;49.906;19.384;2023-07-16T03:35:09;97921.74;;;20.87;71.02
76815;BME280;65768;49.906;19.384;2023-07-16T03:37:37;97920.45;;;20.96;70.73
76815;BME280;65768;49.906;19.384;2023-07-16T03:40:16;97927.24;;;21.06;70.01
76815;BME280;65768;49.906;19.384;2023-07-16T03:42:44;97923.27;;;21.12;70.02
76815;BME280;65768;49.906;19.384;2023-07-16T03:45:12;97930.02;;;21.19;70.16
76815;BME280;65768;49.906;19.384;2023-07-16T03:47:42;97933.81;;;21.21;70.25
76815;BME280;65768;49.906;19.384;2023-07-16T03:50:10;97932.55;;;21.29;70.07
76815;BME280;65768;49.906;19.384;2023-07-16T03:52:38;97931.67;;;21.41;69.44
76815;BME280;65768;49.906;19.384;2023-07-16T03:55:07;97937.05;;;21.47;69.14
76815;BME280;65768;49.906;19.384;2023-07-16T03:57:35;97934.10;;;21.49;69.49
76815;BME280;65768;49.906;19.384;2023-07-16T04:00:04;97940.19;;;21.52;68.99
76815;BME280;65768;49.906;19.384;2023-07-16T04:02:37;97939.52;;;21.69;67.66
76815;BME280;65768;49.906;19.384;2023-07-16T04:05:06;97943.74;;;21.84;66.96
76815;BME280;65768;49.906;19.384;2023-07-16T04:07:34;97944.80;;;21.88;67.20
76815;BME280;65768;49.906;19.384;2023-07-16T04:10:02;97952.13;;;21.80;68.21
76815;BME280;65768;49.906;19.384;2023-07-16T04:12:30;97957.40;;;21.73;69.13
76815;BME280;65768;49.906;19.384;2023-07-16T04:14:59;97965.35;;;21.74;68.94
76815;BME280;65768;49.906;19.384;2023-07-16T04:17:27;97966.50;;;21.72;69.11
76815;BME280;65768;49.906;19.384;2023-07-16T04:19:55;97971.45;;;21.77;68.74
76815;BME280;65768;49.906;19.384;2023-07-16T04:22:23;97974.75;;;21.82;68.62
76815;BME280;65768;49.906;19.384;2023-07-16T04:24:51;97971.95;;;21.84;68.19
76815;BME280;65768;49.906;19.384;2023-07-16T04:27:19;97976.74;;;21.84;68.93
76815;BME280;65768;49.906;19.384;2023-07-16T04:29:47;97978.57;;;21.94;69.03
76815;BME280;65768;49.906;19.384;2023-07-16T04:32:15;97979.80;;;22.05;68.42
76815;BME280;65768;49.906;19.384;2023-07-16T04:34:44;97980.67;;;22.17;68.60
76815;BME280;65768;49.906;19.384;2023-07-16T04:37:12;97982.06;;;22.21;69.68
76815;BME280;65768;49.906;19.384;2023-07-16T04:39:40;97987.57;;;22.31;68.91
76815;BME280;65768;49.906;19.384;2023-07-16T04:42:08;97992.51;;;22.43;68.55
76815;BME280;65768;49.906;19.384;2023-07-16T04:44:36;97995.37;;;22.56;67.75
76815;BME280;65768;49.906;19.384;2023-07-16T04:47:04;97998.46;;;22.65;67.04
76815;BME280;65768;49.906;19.384;2023-07-16T04:49:34;98000.94;;;22.76;66.52
76815;BME280;65768;49.906;19.384;2023-07-16T04:52:03;97999.30;;;22.83;65.97
76815;BME280;65768;49.906;19.384;2023-07-16T04:54:36;98005.73;;;23.03;65.58
76815;BME280;65768;49.906;19.384;2023-07-16T04:57:06;98010.42;;;23.12;65.53
76815;BME280;65768;49.906;19.384;2023-07-16T04:59:35;98015.39;;;23.22;65.06
76815;BME280;65768;49.906;19.384;2023-07-16T05:02:05;98018.16;;;23.30;65.78
76815;BME280;65768;49.906;19.384;2023-07-16T05:04:34;98019.11;;;23.45;65.90
76815;BME280;65768;49.906;19.384;2023-07-16T05:07:04;98017.70;;;23.61;66.78
76815;BME280;65768;49.906;19.384;2023-07-16T05:09:32;98019.83;;;23.74;65.03
76815;BME280;65768;49.906;19.384;2023-07-16T05:12:00;98020.08;;;23.86;64.66
76815;BME280;65768;49.906;19.384;2023-07-16T05:14:28;98023.74;;;23.93;65.31
76815;BME280;65768;49.906;19.384;2023-07-16T05:16:57;98024.46;;;24.09;65.21
76815;BME280;65768;49.906;19.384;2023-07-16T05:19:25;98029.98;;;24.24;64.37
76815;BME280;65768;49.906;19.384;2023-07-16T05:21:53;98029.14;;;24.36;64.58
76815;BME280;65768;49.906;19.384;2023-07-16T05:24:21;98028.23;;;24.52;64.54
76815;BME280;65768;49.906;19.384;2023-07-16T05:26:49;98030.60;;;24.72;64.22
76815;BME280;65768;49.906;19.384;2023-07-16T05:29:18;98033.56;;;24.96;64.44
76815;BME280;65768;49.906;19.384;2023-07-16T05:31:46;98031.40;;;25.23;64.06
76815;BME280;65768;49.906;19.384;2023-07-16T05:34:14;98035.33;;;25.43;62.60
76815;BME280;65768;49.906;19.384;2023-07-16T05:36:43;98032.33;;;25.79;61.29
76815;BME280;65768;49.906;19.384;2023-07-16T05:39:14;98038.19;;;26.07;62.75
76815;BME280;65768;49.906;19.384;2023-07-16T05:41:43;98035.65;;;26.35;61.78
76815;BME280;65768;49.906;19.384;2023-07-16T05:44:11;98035.80;;;26.54;59.93
76815;BME280;65768;49.906;19.384;2023-07-16T05:46:39;98041.13;;;26.68;61.09
76815;BME280;65768;49.906;19.384;2023-07-16T05:49:07;98041.36;;;26.76;59.87
76815;BME280;65768;49.906;19.384;2023-07-16T05:51:35;98042.59;;;26.99;59.62
76815;BME280;65768;49.906;19.384;2023-07-16T05:54:03;98038.80;;;27.12;58.00
76815;BME280;65768;49.906;19.384;2023-07-16T05:56:32;98039.73;;;27.25;59.13
76815;BME280;65768;49.906;19.384;2023-07-16T05:59:00;98041.73;;;27.55;58.52
76815;BME280;65768;49.906;19.384;2023-07-16T06:01:28;98041.17;;;27.83;58.11
76815;BME280;65768;49.906;19.384;2023-07-16T06:03:56;98043.73;;;28.12;58.67
76815;BME280;65768;49.906;19.384;2023-07-16T06:06:24;98038.45;;;28.35;56.70
76815;BME280;65768;49.906;19.384;2023-07-16T06:08:52;98038.88;;;28.60;54.84
76815;BME280;65768;49.906;19.384;2023-07-16T06:11:20;98040.77;;;28.75;53.48
76815;BME280;65768;49.906;19.384;2023-07-16T06:13:48;98043.86;;;28.82;53.10
76815;BME280;65768;49.906;19.384;2023-07-16T06:16:16;98047.05;;;29.13;53.13
76815;BME280;65768;49.906;19.384;2023-07-16T06:18:44;98043.48;;;29.33;51.34
76815;BME280;65768;49.906;19.384;2023-07-16T06:21:12;98050.11;;;29.51;51.20
76815;BME280;65768;49.906;19.384;2023-07-16T06:23:42;98048.12;;;29.63;50.86
76815;BME280;65768;49.906;19.384;2023-07-16T06:26:10;98047.69;;;29.99;50.35
76815;BME280;65768;49.906;19.384;2023-07-16T06:28:39;98043.34;;;29.87;50.01
76815;BME280;65768;49.906;19.384;2023-07-16T06:31:07;98046.14;;;29.99;49.70
76815;BME280;65768;49.906;19.384;2023-07-16T06:33:35;98049.80;;;30.20;49.03
76815;BME280;65768;49.906;19.384;2023-07-16T06:36:03;98051.08;;;30.44;48.83
76815;BME280;65768;49.906;19.384;2023-07-16T06:38:32;98056.45;;;30.72;47.95
76815;BME280;65768;49.906;19.384;2023-07-16T06:41:00;98058.41;;;31.02;45.58
76815;BME280;65768;49.906;19.384;2023-07-16T06:43:28;98060.55;;;31.12;44.81
76815;BME280;65768;49.906;19.384;2023-07-16T06:45:57;98052.66;;;31.23;45.47
76815;BME280;65768;49.906;19.384;2023-07-16T06:48:25;98055.59;;;31.16;44.18
76815;BME280;65768;49.906;19.384;2023-07-16T06:50:53;98049.38;;;31.32;45.08
76815;BME280;65768;49.906;19.384;2023-07-16T06:53:21;98050.59;;;31.51;43.54
76815;BME280;65768;49.906;19.384;2023-07-16T06:55:49;98051.48;;;31.63;43.79
76815;BME280;65768;49.906;19.384;2023-07-16T06:58:18;98051.50;;;31.87;43.80
76815;BME280;65768;49.906;19.384;2023-07-16T07:00:46;98048.92;;;31.96;42.97
76815;BME280;65768;49.906;19.384;2023-07-16T07:03:14;98053.79;;;32.08;42.24
76815;BME280;65768;49.906;19.384;2023-07-16T07:05:42;98059.81;;;32.05;41.02
76815;BME280;65768;49.906;19.384;2023-07-16T07:08:10;98062.66;;;32.16;40.57
76815;BME280;65768;49.906;19.384;2023-07-16T07:10:38;98064.61;;;32.06;41.34
76815;BME280;65768;49.906;19.384;2023-07-16T07:13:07;98070.13;;;32.35;42.88
76815;BME280;65768;49.906;19.384;2023-07-16T07:15:35;98072.83;;;32.49;42.55
76815;BME280;65768;49.906;19.384;2023-07-16T07:18:03;98082.84;;;32.02;42.01
76815;BME280;65768;49.906;19.384;2023-07-16T07:20:31;98095.45;;;32.48;42.16
76815;BME280;65768;49.906;19.384;2023-07-16T07:23:00;98103.21;;;32.70;40.96
76815;BME280;65768;49.906;19.384;2023-07-16T07:25:31;98107.92;;;32.81;40.32
76815;BME280;65768;49.906;19.384;2023-07-16T07:27:59;98116.27;;;32.85;39.83
76815;BME280;65768;49.906;19.384;2023-07-16T07:30:27;98122.01;;;32.89;39.32
76815;BME280;65768;49.906;19.384;2023-07-16T07:32:55;98124.59;;;32.45;38.84
76815;BME280;65768;49.906;19.384;2023-07-16T07:35:24;98131.15;;;32.12;39.07
76815;BME280;65768;49.906;19.384;2023-07-16T07:37:52;98134.38;;;32.59;37.54
76815;BME280;65768;49.906;19.384;2023-07-16T07:40:20;98136.61;;;32.52;37.35
76815;BME280;65768;49.906;19.384;2023-07-16T07:42:50;98143.27;;;32.00;36.61
76815;BME280;65768;49.906;19.384;2023-07-16T07:45:18;98140.23;;;31.65;36.62
76815;BME280;65768;49.906;19.384;2023-07-16T07:47:46;98147.23;;;32.04;36.06
76815;BME280;65768;49.906;19.384;2023-07-16T07:50:14;98153.91;;;32.68;40.90
76815;BME280;65768;49.906;19.384;2023-07-16T07:52:42;98155.36;;;32.50;41.32
76815;BME280;65768;49.906;19.384;2023-07-16T07:55:11;98156.55;;;32.65;41.09
76815;BME280;65768;49.906;19.384;2023-07-16T07:57:39;98159.02;;;32.91;39.70
76815;BME280;65768;49.906;19.384;2023-07-16T08:00:09;98162.54;;;32.63;39.81
76815;BME280;65768;49.906;19.384;2023-07-16T08:02:40;98161.96;;;32.81;38.79
76815;BME280;65768;49.906;19.384;2023-07-16T08:05:08;98159.41;;;32.95;38.08
76815;BME280;65768;49.906;19.384;2023-07-16T08:07:36;98155.19;;;32.50;38.19
76815;BME280;65768;49.906;19.384;2023-07-16T08:10:05;98158.39;;;32.81;39.24
76815;BME280;65768;49.906;19.384;2023-07-16T08:12:33;98163.38;;;32.87;37.68
76815;BME280;65768;49.906;19.384;2023-07-16T08:15:01;98161.58;;;32.85;38.55
76815;BME280;65768;49.906;19.384;2023-07-16T08:17:29;98161.16;;;33.04;38.99
76815;BME280;65768;49.906;19.384;2023-07-16T08:19:57;98161.40;;;32.76;38.77
76815;BME280;65768;49.906;19.384;2023-07-16T08:22:26;98166.12;;;33.28;37.94
76815;BME280;65768;49.906;19.384;2023-07-16T08:24:54;98161.42;;;33.33;37.35
76815;BME280;65768;49.906;19.384;2023-07-16T08:27:22;98163.47;;;33.27;37.73
76815;BME280;65768;49.906;19.384;2023-07-16T08:29:50;98160.94;;;33.49;37.87
76815;BME280;65768;49.906;19.384;2023-07-16T08:32:19;98160.06;;;33.60;36.72
76815;BME280;65768;49.906;19.384;2023-07-16T08:34:47;98160.85;;;33.38;36.94
76815;BME280;65768;49.906;19.384;2023-07-16T08:37:16;98151.59;;;33.48;37.33
76815;BME280;65768;49.906;19.384;2023-07-16T08:39:44;98156.50;;;33.65;36.54
76815;BME280;65768;49.906;19.384;2023-07-16T08:42:12;98155.25;;;33.74;36.81
76815;BME280;65768;49.906;19.384;2023-07-16T08:44:41;98154.22;;;33.72;35.75
76815;BME280;65768;49.906;19.384;2023-07-16T08:47:10;98157.18;;;33.71;35.09
76815;BME280;65768;49.906;19.384;2023-07-16T08:49:39;98165.40;;;33.18;34.77
76815;BME280;65768;49.906;19.384;2023-07-16T08:52:09;98158.46;;;33.02;33.96
76815;BME280;65768;49.906;19.384;2023-07-16T08:54:37;98161.04;;;33.11;34.74
76815;BME280;65768;49.906;19.384;2023-07-16T08:57:05;98160.33;;;33.18;34.51
76815;BME280;65768;49.906;19.384;2023-07-16T08:59:34;98158.64;;;33.15;34.13
76815;BME280;65768;49.906;19.384;2023-07-16T09:02:06;98150.59;;;33.34;33.58
76815;BME280;65768;49.906;19.384;2023-07-16T09:04:35;98145.20;;;33.92;33.73
76815;BME280;65768;49.906;19.384;2023-07-16T09:07:04;98151.62;;;33.42;32.42
76815;BME280;65768;49.906;19.384;2023-07-16T09:09:33;98143.91;;;34.00;32.99
76815;BME280;65768;49.906;19.384;2023-07-16T09:12:02;98145.41;;;34.09;32.47
76815;BME280;65768;49.906;19.384;2023-07-16T09:14:30;98140.91;;;34.40;32.74
76815;BME280;65768;49.906;19.384;2023-07-16T09:16:58;98146.58;;;34.62;31.12
76815;BME280;65768;49.906;19.384;2023-07-16T09:19:27;98153.78;;;33.72;33.47
76815;BME280;65768;49.906;19.384;2023-07-16T09:21:55;98143.83;;;33.82;33.71
76815;BME280;65768;49.906;19.384;2023-07-16T09:24:24;98137.04;;;34.42;33.69
76815;BME280;65768;49.906;19.384;2023-07-16T09:26:53;98135.47;;;34.68;33.74
76815;BME280;65768;49.906;19.384;2023-07-16T09:29:24;98138.19;;;34.75;33.98
76815;BME280;65768;49.906;19.384;2023-07-16T09:31:55;98140.02;;;33.84;33.60
76815;BME280;65768;49.906;19.384;2023-07-16T09:34:23;98138.89;;;34.36;32.99
76815;BME280;65768;49.906;19.384;2023-07-16T09:36:55;98140.78;;;34.67;32.95
76815;BME280;65768;49.906;19.384;2023-07-16T09:39:25;98141.67;;;34.47;31.80
76815;BME280;65768;49.906;19.384;2023-07-16T09:41:54;98138.70;;;34.53;31.64
76815;BME280;65768;49.906;19.384;2023-07-16T09:44:25;98144.13;;;34.53;32.24
76815;BME280;65768;49.906;19.384;2023-07-16T09:46:53;98140.11;;;35.04;30.24
76815;BME280;65768;49.906;19.384;2023-07-16T09:49:21;98140.60;;;34.83;29.06
76815;BME280;65768;49.906;19.384;2023-07-16T09:51:52;98146.88;;;34.51;30.81
76815;BME280;65768;49.906;19.384;2023-07-16T09:54:24;98143.33;;;34.41;30.92
76815;BME280;65768;49.906;19.384;2023-07-16T09:56:56;98147.66;;;34.49;29.20
76815;BME280;65768;49.906;19.384;2023-07-16T09:59:30;98142.52;;;34.97;29.39
76815;BME280;65768;49.906;19.384;2023-07-16T10:01:59;98141.33;;;34.89;31.03
76815;BME280;65768;49.906;19.384;2023-07-16T10:04:37;98140.39;;;35.35;30.72
76815;BME280;65768;49.906;19.384;2023-07-16T10:07:23;98139.66;;;35.11;30.54
76815;BME280;65768;49.906;19.384;2023-07-16T10:09:56;98142.80;;;35.89;29.48
76815;BME280;65768;49.906;19.384;2023-07-16T10:12:25;98147.70;;;35.42;27.64
76815;BME280;65768;49.906;19.384;2023-07-16T10:14:55;98145.70;;;34.50;28.51
76815;BME280;65768;49.906;19.384;2023-07-16T10:17:27;98145.18;;;35.15;29.51
76815;BME280;65768;49.906;19.384;2023-07-16T10:19:59;98144.48;;;34.97;29.51
76815;BME280;65768;49.906;19.384;2023-07-16T10:22:42;98138.21;;;34.78;28.25
76815;BME280;65768;49.906;19.384;2023-07-16T10:27:46;98143.02;;;34.86;29.34
76815;BME280;65768;49.906;19.384;2023-07-16T10:30:15;98144.23;;;35.14;29.02
76815;BME280;65768;49.906;19.384;2023-07-16T10:32:44;98143.14;;;35.54;29.75
76815;BME280;65768;49.906;19.384;2023-07-16T10:35:12;98145.29;;;35.51;28.95
76815;BME280;65768;49.906;19.384;2023-07-16T10:37:41;98137.52;;;35.65;29.40
76815;BME280;65768;49.906;19.384;2023-07-16T10:40:13;98136.06;;;36.07;29.90
76815;BME280;65768;49.906;19.384;2023-07-16T10:42:43;98138.46;;;36.32;28.49
76815;BME280;65768;49.906;19.384;2023-07-16T10:45:12;98139.15;;;36.17;28.62
76815;BME280;65768;49.906;19.384;2023-07-16T10:47:52;98138.96;;;36.02;28.99
76815;BME280;65768;49.906;19.384;2023-07-16T10:50:20;98137.02;;;35.96;29.12
76815;BME280;65768;49.906;19.384;2023-07-16T10:52:56;98133.31;;;36.12;27.85
76815;BME280;65768;49.906;19.384;2023-07-16T10:55:27;98135.05;;;36.37;29.27
76815;BME280;65768;49.906;19.384;2023-07-16T10:57:56;98137.40;;;36.28;29.94
76815;BME280;65768;49.906;19.384;2023-07-16T11:00:24;98141.53;;;36.48;30.42
76815;BME280;65768;49.906;19.384;2023-07-16T11:02:52;98135.44;;;36.69;28.09
76815;BME280;65768;49.906;19.384;2023-07-16T11:05:21;98134.48;;;36.35;28.78
76815;BME280;65768;49.906;19.384;2023-07-16T11:07:49;98127.89;;;34.96;28.82
76815;BME280;65768;49.906;19.384;2023-07-16T11:10:18;98128.79;;;35.21;30.33
76815;BME280;65768;49.906;19.384;2023-07-16T11:12:51;98132.02;;;35.78;29.23
76815;BME280;65768;49.906;19.384;2023-07-16T11:15:32;98129.70;;;35.77;28.92
76815;BME280;65768;49.906;19.384;2023-07-16T11:18:03;98129.08;;;35.99;28.12
76815;BME280;65768;49.906;19.384;2023-07-16T11:20:31;98128.44;;;35.81;30.65
76815;BME280;65768;49.906;19.384;2023-07-16T11:23:00;98126.25;;;36.46;28.54
76815;BME280;65768;49.906;19.384;2023-07-16T11:25:28;98126.06;;;35.88;29.17
76815;BME280;65768;49.906;19.384;2023-07-16T11:27:57;98128.89;;;35.29;29.47
76815;BME280;65768;49.906;19.384;2023-07-16T11:30:26;98130.74;;;35.45;29.28
76815;BME280;65768;49.906;19.384;2023-07-16T11:32:58;98127.69;;;35.83;29.86
76815;BME280;65768;49.906;19.384;2023-07-16T11:35:26;98126.88;;;36.26;29.84
76815;BME280;65768;49.906;19.384;2023-07-16T11:37:54;98126.98;;;36.12;30.20
76815;BME280;65768;49.906;19.384;2023-07-16T11:40:24;98122.02;;;36.48;30.11
76815;BME280;65768;49.906;19.384;2023-07-16T11:42:53;98120.04;;;36.58;29.71
76815;BME280;65768;49.906;19.384;2023-07-16T11:45:23;98120.23;;;36.83;28.83
76815;BME280;65768;49.906;19.384;2023-07-16T11:47:56;98118.94;;;36.70;30.44
76815;BME280;65768;49.906;19.384;2023-07-16T11:50:25;98121.24;;;35.85;29.55
76815;BME280;65768;49.906;19.384;2023-07-16T11:52:55;98118.05;;;35.81;29.31
76815;BME280;65768;49.906;19.384;2023-07-16T11:55:23;98117.35;;;35.83;29.32
76815;BME280;65768;49.906;19.384;2023-07-16T11:57:52;98119.92;;;35.56;30.57
76815;BME280;65768;49.906;19.384;2023-07-16T12:00:20;98112.50;;;36.08;31.16
76815;BME280;65768;49.906;19.384;2023-07-16T12:02:51;98117.64;;;36.25;30.06
76815;BME280;65768;49.906;19.384;2023-07-16T12:05:21;98121.48;;;35.74;29.20
76815;BME280;65768;49.906;19.384;2023-07-16T12:07:49;98124.29;;;35.65;29.42
76815;BME280;65768;49.906;19.384;2023-07-16T12:10:18;98118.20;;;35.94;29.59
76815;BME280;65768;49.906;19.384;2023-07-16T12:12:46;98113.23;;;36.35;30.40
76815;BME280;65768;49.906;19.384;2023-07-16T12:15:14;98108.27;;;36.88;29.07
76815;BME280;65768;49.906;19.384;2023-07-16T12:17:43;98108.24;;;36.98;30.16
76815;BME280;65768;49.906;19.384;2023-07-16T12:20:11;98105.77;;;36.30;28.69
76815;BME280;65768;49.906;19.384;2023-07-16T12:22:39;98104.84;;;36.54;29.24
76815;BME280;65768;49.906;19.384;2023-07-16T12:25:07;98102.92;;;35.99;30.49
76815;BME280;65768;49.906;19.384;2023-07-16T12:27:36;98102.66;;;36.03;30.25
76815;BME280;65768;49.906;19.384;2023-07-16T12:30:04;98104.91;;;36.38;30.28
76815;BME280;65768;49.906;19.384;2023-07-16T12:32:33;98103.77;;;37.25;29.25
76815;BME280;65768;49.906;19.384;2023-07-16T12:35:02;98107.81;;;36.90;28.44
76815;BME280;65768;49.906;19.384;2023-07-16T12:37:32;98106.66;;;37.01;29.67
76815;BME280;65768;49.906;19.384;2023-07-16T12:40:00;98105.98;;;37.49;28.48
76815;BME280;65768;49.906;19.384;2023-07-16T12:42:28;98104.29;;;37.21;28.78
76815;BME280;65768;49.906;19.384;2023-07-16T12:44:56;98104.58;;;36.96;28.96
76815;BME280;65768;49.906;19.384;2023-07-16T12:47:25;98106.99;;;37.26;28.26
76815;BME280;65768;49.906;19.384;2023-07-16T12:49:53;98095.35;;;37.37;27.99
76815;BME280;65768;49.906;19.384;2023-07-16T12:52:21;98094.16;;;37.25;29.66
76815;BME280;65768;49.906;19.384;2023-07-16T12:54:50;98086.44;;;37.84;29.28
76815;BME280;65768;49.906;19.384;2023-07-16T12:57:18;98083.43;;;37.35;28.74
76815;BME280;65768;49.906;19.384;2023-07-16T12:59:46;98087.77;;;36.81;29.82
76815;BME280;65768;49.906;19.384;2023-07-16T13:02:15;98089.10;;;36.92;29.96
76815;BME280;65768;49.906;19.384;2023-07-16T13:04:43;98086.59;;;37.55;29.95
76815;BME280;65768;49.906;19.384;2023-07-16T13:07:11;98086.78;;;37.86;29.97
76815;BME280;65768;49.906;19.384;2023-07-16T13:09:41;98082.16;;;38.48;28.50